sensor_id;sensor_type;location;lat;lon;timestamp;P1;durP1;ratioP1;P2;durP2;ratioP2
26908;SDS011;14477;51.038;4.588;2023-03-13T00:02:10;4.90;;;1.50;;
26908;SDS011;14477;51.038;4.588;2023-03-13T00:04:36;4.90;;;1.70;;
26908;SDS011;14477;51.038;4.588;2023-03-13T00:07:01;6.77;;;1.80;;
26908;SDS011;14477;51.038;4.588;2023-03-13T00:09:27;5.90;;;1.40;;
26908;SDS011;14477;51.038;4.588;2023-03-13T00:11:53;5.13;;;1.53;;
26908;SDS011;14477;51.038;4.588;2023-03-13T00:14:18;5.78;;;1.60;;
26908;SDS011;14477;51.038;4.588;2023-03-13T00:16:44;3.80;;;1.50;;
26908;SDS011;14477;51.038;4.588;2023-03-13T00:19:10;9.15;;;2.05;;
26908;SDS011;14477;51.038;4.588;2023-03-13T00:21:36;5.38;;;1.83;;
26908;SDS011;14477;51.038;4.588;2023-03-13T00:24:02;6.97;;;2.07;;
26908;SDS011;14477;51.038;4.588;2023-03-13T00:26:29;6.72;;;2.15;;
26908;SDS011;14477;51.038;4.588;2023-03-13T00:28:56;5.45;;;1.95;;
26908;SDS011;14477;51.038;4.588;2023-03-13T00:31:23;4.87;;;1.80;;
26908;SDS011;14477;51.038;4.588;2023-03-13T00:33:54;7.30;;;1.90;;
26908;SDS011;14477;51.038;4.588;2023-03-13T00:36:32;6.13;;;2.00;;
26908;SDS011;14477;51.038;4.588;2023-03-13T00:38:58;5.05;;;1.83;;
26908;SDS011;14477;51.038;4.588;2023-03-13T00:41:26;4.70;;;1.77;;
26908;SDS011;14477;51.038;4.588;2023-03-13T00:43:52;5.13;;;1.80;;
26908;SDS011;14477;51.038;4.588;2023-03-13T00:46:19;4.15;;;1.73;;
26908;SDS011;14477;51.038;4.588;2023-03-13T00:48:47;6.78;;;1.73;;
26908;SDS011;14477;51.038;4.588;2023-03-13T00:51:14;4.38;;;1.73;;
26908;SDS011;14477;51.038;4.588;2023-03-13T00:53:41;5.03;;;1.60;;
26908;SDS011;14477;51.038;4.588;2023-03-13T00:56:10;4.60;;;1.70;;
26908;SDS011;14477;51.038;4.588;2023-03-13T00:58:38;5.10;;;1.85;;
26908;SDS011;14477;51.038;4.588;2023-03-13T01:01:15;4.32;;;1.50;;
26908;SDS011;14477;51.038;4.588;2023-03-13T01:03:44;5.00;;;1.60;;
26908;SDS011;14477;51.038;4.588;2023-03-13T01:06:12;3.80;;;1.70;;
26908;SDS011;14477;51.038;4.588;2023-03-13T01:08:42;3.20;;;1.58;;
26908;SDS011;14477;51.038;4.588;2023-03-13T01:11:09;5.00;;;1.80;;
26908;SDS011;14477;51.038;4.588;2023-03-13T01:13:36;3.72;;;1.83;;
26908;SDS011;14477;51.038;4.588;2023-03-13T01:16:03;4.00;;;1.90;;
26908;SDS011;14477;51.038;4.588;2023-03-13T01:18:30;5.17;;;1.90;;
26908;SDS011;14477;51.038;4.588;2023-03-13T01:20:56;4.22;;;1.88;;
26908;SDS011;14477;51.038;4.588;2023-03-13T01:23:22;4.50;;;1.80;;
26908;SDS011;14477;51.038;4.588;2023-03-13T01:25:47;4.07;;;2.00;;
26908;SDS011;14477;51.038;4.588;2023-03-13T01:28:13;3.40;;;1.67;;
26908;SDS011;14477;51.038;4.588;2023-03-13T01:30:39;5.93;;;2.30;;
26908;SDS011;14477;51.038;4.588;2023-03-13T01:33:04;5.55;;;2.33;;
26908;SDS011;14477;51.038;4.588;2023-03-13T01:35:30;4.63;;;2.17;;
26908;SDS011;14477;51.038;4.588;2023-03-13T01:37:56;6.38;;;2.28;;
26908;SDS011;14477;51.038;4.588;2023-03-13T01:40:22;3.97;;;2.53;;
26908;SDS011;14477;51.038;4.588;2023-03-13T01:42:57;5.10;;;2.58;;
26908;SDS011;14477;51.038;4.588;2023-03-13T01:48:22;6.43;;;3.27;;
26908;SDS011;14477;51.038;4.588;2023-03-13T01:50:52;5.95;;;3.45;;
26908;SDS011;14477;51.038;4.588;2023-03-13T01:53:20;6.15;;;3.42;;
26908;SDS011;14477;51.038;4.588;2023-03-13T01:55:47;8.23;;;3.45;;
26908;SDS011;14477;51.038;4.588;2023-03-13T01:58:13;4.97;;;3.17;;
26908;SDS011;14477;51.038;4.588;2023-03-13T02:00:39;5.00;;;2.97;;
26908;SDS011;14477;51.038;4.588;2023-03-13T02:03:08;5.18;;;2.88;;
26908;SDS011;14477;51.038;4.588;2023-03-13T02:05:37;5.80;;;2.83;;
26908;SDS011;14477;51.038;4.588;2023-03-13T02:08:07;5.60;;;3.25;;
26908;SDS011;14477;51.038;4.588;2023-03-13T02:10:43;5.73;;;3.30;;
26908;SDS011;14477;51.038;4.588;2023-03-13T02:13:33;5.60;;;3.35;;
26908;SDS011;14477;51.038;4.588;2023-03-13T02:15:58;4.60;;;3.00;;
26908;SDS011;14477;51.038;4.588;2023-03-13T02:18:25;5.53;;;2.97;;
26908;SDS011;14477;51.038;4.588;2023-03-13T02:20:51;6.55;;;3.08;;
26908;SDS011;14477;51.038;4.588;2023-03-13T02:23:26;5.25;;;3.30;;
26908;SDS011;14477;51.038;4.588;2023-03-13T02:26:17;5.63;;;3.15;;
26908;SDS011;14477;51.038;4.588;2023-03-13T02:28:43;6.77;;;3.60;;
26908;SDS011;14477;51.038;4.588;2023-03-13T02:31:09;5.28;;;3.30;;
26908;SDS011;14477;51.038;4.588;2023-03-13T02:33:38;4.35;;;2.80;;
26908;SDS011;14477;51.038;4.588;2023-03-13T02:36:06;6.27;;;2.90;;
26908;SDS011;14477;51.038;4.588;2023-03-13T02:38:34;4.47;;;2.83;;
26908;SDS011;14477;51.038;4.588;2023-03-13T02:41:08;4.88;;;2.65;;
26908;SDS011;14477;51.038;4.588;2023-03-13T02:43:35;4.18;;;2.70;;
26908;SDS011;14477;51.038;4.588;2023-03-13T02:48:48;4.60;;;2.70;;
26908;SDS011;14477;51.038;4.588;2023-03-13T02:51:21;4.85;;;2.65;;
26908;SDS011;14477;51.038;4.588;2023-03-13T02:53:51;4.82;;;2.80;;
26908;SDS011;14477;51.038;4.588;2023-03-13T02:56:20;3.97;;;2.17;;
26908;SDS011;14477;51.038;4.588;2023-03-13T02:58:48;5.15;;;2.97;;
26908;SDS011;14477;51.038;4.588;2023-03-13T03:01:13;4.53;;;2.40;;
26908;SDS011;14477;51.038;4.588;2023-03-13T03:03:39;3.17;;;2.17;;
26908;SDS011;14477;51.038;4.588;2023-03-13T03:06:05;4.85;;;2.50;;
26908;SDS011;14477;51.038;4.588;2023-03-13T03:08:31;5.80;;;2.95;;
26908;SDS011;14477;51.038;4.588;2023-03-13T03:10:58;3.90;;;2.50;;
26908;SDS011;14477;51.038;4.588;2023-03-13T03:13:23;4.30;;;2.58;;
26908;SDS011;14477;51.038;4.588;2023-03-13T03:15:49;5.03;;;2.33;;
26908;SDS011;14477;51.038;4.588;2023-03-13T03:18:15;3.83;;;2.47;;
26908;SDS011;14477;51.038;4.588;2023-03-13T03:20:40;3.43;;;2.63;;
26908;SDS011;14477;51.038;4.588;2023-03-13T03:23:06;4.22;;;2.30;;
26908;SDS011;14477;51.038;4.588;2023-03-13T03:25:32;3.70;;;2.23;;
26908;SDS011;14477;51.038;4.588;2023-03-13T03:27:57;4.35;;;2.17;;
26908;SDS011;14477;51.038;4.588;2023-03-13T03:30:23;5.17;;;2.67;;
26908;SDS011;14477;51.038;4.588;2023-03-13T03:32:49;4.22;;;2.25;;
26908;SDS011;14477;51.038;4.588;2023-03-13T03:35:14;4.00;;;2.10;;
26908;SDS011;14477;51.038;4.588;2023-03-13T03:37:40;4.75;;;2.20;;
26908;SDS011;14477;51.038;4.588;2023-03-13T03:40:06;4.23;;;2.20;;
26908;SDS011;14477;51.038;4.588;2023-03-13T03:42:33;3.42;;;1.83;;
26908;SDS011;14477;51.038;4.588;2023-03-13T03:44:59;2.97;;;2.08;;
26908;SDS011;14477;51.038;4.588;2023-03-13T03:47:25;3.20;;;1.70;;
26908;SDS011;14477;51.038;4.588;2023-03-13T03:49:51;2.60;;;1.77;;
26908;SDS011;14477;51.038;4.588;2023-03-13T03:52:16;4.53;;;2.00;;
26908;SDS011;14477;51.038;4.588;2023-03-13T03:54:42;2.80;;;1.90;;
26908;SDS011;14477;51.038;4.588;2023-03-13T03:57:08;3.47;;;1.97;;
26908;SDS011;14477;51.038;4.588;2023-03-13T03:59:33;3.30;;;1.60;;
26908;SDS011;14477;51.038;4.588;2023-03-13T04:01:59;3.60;;;2.00;;
26908;SDS011;14477;51.038;4.588;2023-03-13T04:04:24;4.73;;;2.10;;
26908;SDS011;14477;51.038;4.588;2023-03-13T04:06:51;4.50;;;2.00;;
26908;SDS011;14477;51.038;4.588;2023-03-13T04:09:18;3.08;;;2.00;;
26908;SDS011;14477;51.038;4.588;2023-03-13T04:11:43;4.73;;;2.30;;
26908;SDS011;14477;51.038;4.588;2023-03-13T04:14:09;4.90;;;1.88;;
26908;SDS011;14477;51.038;4.588;2023-03-13T04:16:34;3.50;;;1.90;;
26908;SDS011;14477;51.038;4.588;2023-03-13T04:19:00;4.25;;;1.98;;
26908;SDS011;14477;51.038;4.588;2023-03-13T04:21:26;3.00;;;2.10;;
26908;SDS011;14477;51.038;4.588;2023-03-13T04:23:51;6.17;;;2.07;;
26908;SDS011;14477;51.038;4.588;2023-03-13T04:26:17;2.90;;;1.70;;
26908;SDS011;14477;51.038;4.588;2023-03-13T04:28:43;5.70;;;2.40;;
26908;SDS011;14477;51.038;4.588;2023-03-13T04:31:08;2.67;;;1.75;;
26908;SDS011;14477;51.038;4.588;2023-03-13T04:33:34;4.03;;;2.03;;
26908;SDS011;14477;51.038;4.588;2023-03-13T04:36:01;4.63;;;1.83;;
26908;SDS011;14477;51.038;4.588;2023-03-13T04:38:27;2.92;;;1.80;;
26908;SDS011;14477;51.038;4.588;2023-03-13T04:40:53;3.57;;;1.80;;
26908;SDS011;14477;51.038;4.588;2023-03-13T04:43:18;3.55;;;1.80;;
26908;SDS011;14477;51.038;4.588;2023-03-13T04:45:44;5.00;;;2.10;;
26908;SDS011;14477;51.038;4.588;2023-03-13T04:48:11;2.55;;;1.70;;
26908;SDS011;14477;51.038;4.588;2023-03-13T04:50:37;3.80;;;1.90;;
26908;SDS011;14477;51.038;4.588;2023-03-13T04:53:03;3.13;;;1.67;;
26908;SDS011;14477;51.038;4.588;2023-03-13T04:55:29;2.87;;;1.80;;
26908;SDS011;14477;51.038;4.588;2023-03-13T04:57:54;2.75;;;1.52;;
26908;SDS011;14477;51.038;4.588;2023-03-13T05:00:20;3.97;;;1.50;;
26908;SDS011;14477;51.038;4.588;2023-03-13T05:02:46;4.47;;;1.90;;
26908;SDS011;14477;51.038;4.588;2023-03-13T05:05:11;3.00;;;1.80;;
26908;SDS011;14477;51.038;4.588;2023-03-13T05:07:37;3.83;;;1.67;;
26908;SDS011;14477;51.038;4.588;2023-03-13T05:10:03;3.70;;;1.60;;
26908;SDS011;14477;51.038;4.588;2023-03-13T05:12:29;5.25;;;1.70;;
26908;SDS011;14477;51.038;4.588;2023-03-13T05:14:54;4.47;;;1.70;;
26908;SDS011;14477;51.038;4.588;2023-03-13T05:17:20;7.13;;;2.20;;
26908;SDS011;14477;51.038;4.588;2023-03-13T05:19:46;4.03;;;1.73;;
26908;SDS011;14477;51.038;4.588;2023-03-13T05:22:11;4.43;;;2.10;;
26908;SDS011;14477;51.038;4.588;2023-03-13T05:24:37;3.00;;;1.80;;
26908;SDS011;14477;51.038;4.588;2023-03-13T05:27:03;4.45;;;1.80;;
26908;SDS011;14477;51.038;4.588;2023-03-13T05:29:30;3.03;;;1.65;;
26908;SDS011;14477;51.038;4.588;2023-03-13T05:31:56;4.33;;;1.90;;
26908;SDS011;14477;51.038;4.588;2023-03-13T05:34:21;5.00;;;1.80;;
26908;SDS011;14477;51.038;4.588;2023-03-13T05:36:47;4.22;;;1.75;;
26908;SDS011;14477;51.038;4.588;2023-03-13T05:39:13;4.03;;;1.67;;
26908;SDS011;14477;51.038;4.588;2023-03-13T05:41:38;4.40;;;1.70;;
26908;SDS011;14477;51.038;4.588;2023-03-13T05:44:04;5.30;;;2.00;;
26908;SDS011;14477;51.038;4.588;2023-03-13T05:46:30;4.37;;;1.80;;
26908;SDS011;14477;51.038;4.588;2023-03-13T05:48:56;4.65;;;1.98;;
26908;SDS011;14477;51.038;4.588;2023-03-13T05:51:22;4.57;;;2.00;;
26908;SDS011;14477;51.038;4.588;2023-03-13T05:53:47;3.42;;;1.60;;
26908;SDS011;14477;51.038;4.588;2023-03-13T05:56:13;6.30;;;2.20;;
26908;SDS011;14477;51.038;4.588;2023-03-13T05:58:39;5.72;;;1.85;;
26908;SDS011;14477;51.038;4.588;2023-03-13T06:01:05;5.10;;;2.00;;
26908;SDS011;14477;51.038;4.588;2023-03-13T06:03:32;4.35;;;1.77;;
26908;SDS011;14477;51.038;4.588;2023-03-13T06:05:58;4.35;;;1.70;;
26908;SDS011;14477;51.038;4.588;2023-03-13T06:08:24;4.33;;;1.83;;
26908;SDS011;14477;51.038;4.588;2023-03-13T06:10:50;5.45;;;1.85;;
26908;SDS011;14477;51.038;4.588;2023-03-13T06:13:15;4.27;;;1.90;;
26908;SDS011;14477;51.038;4.588;2023-03-13T06:15:41;3.92;;;1.83;;
26908;SDS011;14477;51.038;4.588;2023-03-13T06:18:06;4.53;;;1.80;;
26908;SDS011;14477;51.038;4.588;2023-03-13T06:20:32;5.07;;;2.23;;
26908;SDS011;14477;51.038;4.588;2023-03-13T06:22:58;5.45;;;2.03;;
26908;SDS011;14477;51.038;4.588;2023-03-13T06:25:23;5.97;;;2.33;;
26908;SDS011;14477;51.038;4.588;2023-03-13T06:27:49;7.05;;;2.05;;
26908;SDS011;14477;51.038;4.588;2023-03-13T06:30:15;4.22;;;1.92;;
26908;SDS011;14477;51.038;4.588;2023-03-13T06:32:41;3.47;;;1.87;;
26908;SDS011;14477;51.038;4.588;2023-03-13T06:35:07;3.70;;;1.90;;
26908;SDS011;14477;51.038;4.588;2023-03-13T06:37:33;5.63;;;1.88;;
26908;SDS011;14477;51.038;4.588;2023-03-13T06:39:58;3.73;;;1.90;;
26908;SDS011;14477;51.038;4.588;2023-03-13T06:42:24;4.97;;;2.10;;
26908;SDS011;14477;51.038;4.588;2023-03-13T06:44:50;5.53;;;2.10;;
26908;SDS011;14477;51.038;4.588;2023-03-13T06:47:17;6.27;;;1.90;;
26908;SDS011;14477;51.038;4.588;2023-03-13T06:49:42;4.97;;;2.08;;
26908;SDS011;14477;51.038;4.588;2023-03-13T06:52:08;6.68;;;2.15;;
26908;SDS011;14477;51.038;4.588;2023-03-13T06:54:34;4.70;;;1.90;;
26908;SDS011;14477;51.038;4.588;2023-03-13T06:56:59;5.55;;;2.15;;
26908;SDS011;14477;51.038;4.588;2023-03-13T06:59:25;6.20;;;2.10;;
26908;SDS011;14477;51.038;4.588;2023-03-13T07:01:51;5.65;;;2.08;;
26908;SDS011;14477;51.038;4.588;2023-03-13T07:04:17;6.03;;;2.30;;
26908;SDS011;14477;51.038;4.588;2023-03-13T07:06:43;5.57;;;2.30;;
26908;SDS011;14477;51.038;4.588;2023-03-13T07:09:09;7.55;;;2.40;;
26908;SDS011;14477;51.038;4.588;2023-03-13T07:11:35;3.90;;;1.90;;
26908;SDS011;14477;51.038;4.588;2023-03-13T07:14:00;6.23;;;2.00;;
26908;SDS011;14477;51.038;4.588;2023-03-13T07:16:26;5.73;;;2.20;;
26908;SDS011;14477;51.038;4.588;2023-03-13T07:18:52;3.60;;;1.73;;
26908;SDS011;14477;51.038;4.588;2023-03-13T07:21:18;5.07;;;1.90;;
26908;SDS011;14477;51.038;4.588;2023-03-13T07:23:43;5.47;;;2.17;;
26908;SDS011;14477;51.038;4.588;2023-03-13T07:26:11;5.73;;;1.90;;
26908;SDS011;14477;51.038;4.588;2023-03-13T07:28:39;4.45;;;2.08;;
26908;SDS011;14477;51.038;4.588;2023-03-13T07:31:22;4.93;;;2.20;;
26908;SDS011;14477;51.038;4.588;2023-03-13T07:33:48;3.83;;;1.90;;
26908;SDS011;14477;51.038;4.588;2023-03-13T07:36:18;4.68;;;2.00;;
26908;SDS011;14477;51.038;4.588;2023-03-13T07:38:47;4.43;;;1.85;;
26908;SDS011;14477;51.038;4.588;2023-03-13T07:41:13;5.07;;;1.93;;
26908;SDS011;14477;51.038;4.588;2023-03-13T07:43:39;4.15;;;1.90;;
26908;SDS011;14477;51.038;4.588;2023-03-13T07:46:06;3.65;;;1.77;;
26908;SDS011;14477;51.038;4.588;2023-03-13T07:48:35;5.90;;;2.40;;
26908;SDS011;14477;51.038;4.588;2023-03-13T07:51:03;5.50;;;1.90;;
26908;SDS011;14477;51.038;4.588;2023-03-13T07:53:30;6.53;;;2.30;;
26908;SDS011;14477;51.038;4.588;2023-03-13T07:56:01;5.53;;;2.10;;
26908;SDS011;14477;51.038;4.588;2023-03-13T07:58:33;4.03;;;1.85;;
26908;SDS011;14477;51.038;4.588;2023-03-13T08:01:00;5.43;;;2.00;;
26908;SDS011;14477;51.038;4.588;2023-03-13T08:03:25;7.57;;;2.27;;
26908;SDS011;14477;51.038;4.588;2023-03-13T08:05:59;5.97;;;2.20;;
26908;SDS011;14477;51.038;4.588;2023-03-13T08:08:27;4.50;;;1.75;;
26908;SDS011;14477;51.038;4.588;2023-03-13T08:10:57;5.13;;;1.90;;
26908;SDS011;14477;51.038;4.588;2023-03-13T08:13:24;7.03;;;2.10;;
26908;SDS011;14477;51.038;4.588;2023-03-13T08:15:50;5.07;;;2.20;;
26908;SDS011;14477;51.038;4.588;2023-03-13T08:18:15;4.23;;;1.80;;
26908;SDS011;14477;51.038;4.588;2023-03-13T08:20:41;5.13;;;1.80;;
26908;SDS011;14477;51.038;4.588;2023-03-13T08:23:07;2.83;;;1.83;;
26908;SDS011;14477;51.038;4.588;2023-03-13T08:25:32;3.33;;;2.00;;
26908;SDS011;14477;51.038;4.588;2023-03-13T08:27:58;4.17;;;1.90;;
26908;SDS011;14477;51.038;4.588;2023-03-13T08:30:23;5.15;;;2.10;;
26908;SDS011;14477;51.038;4.588;2023-03-13T08:32:49;3.67;;;1.83;;
26908;SDS011;14477;51.038;4.588;2023-03-13T08:35:15;3.00;;;1.80;;
26908;SDS011;14477;51.038;4.588;2023-03-13T08:37:40;3.87;;;1.90;;
26908;SDS011;14477;51.038;4.588;2023-03-13T08:40:06;3.40;;;1.80;;
26908;SDS011;14477;51.038;4.588;2023-03-13T08:42:36;4.90;;;2.08;;
26908;SDS011;14477;51.038;4.588;2023-03-13T08:45:03;4.97;;;1.80;;
26908;SDS011;14477;51.038;4.588;2023-03-13T08:47:29;5.80;;;1.95;;
26908;SDS011;14477;51.038;4.588;2023-03-13T08:49:55;4.03;;;2.00;;
26908;SDS011;14477;51.038;4.588;2023-03-13T08:52:22;2.30;;;1.65;;
26908;SDS011;14477;51.038;4.588;2023-03-13T08:54:47;3.57;;;1.50;;
26908;SDS011;14477;51.038;4.588;2023-03-13T08:57:13;3.45;;;1.50;;
26908;SDS011;14477;51.038;4.588;2023-03-13T08:59:39;2.50;;;1.70;;
26908;SDS011;14477;51.038;4.588;2023-03-13T09:02:05;3.83;;;1.67;;
26908;SDS011;14477;51.038;4.588;2023-03-13T09:04:30;2.90;;;1.65;;
26908;SDS011;14477;51.038;4.588;2023-03-13T09:06:56;3.73;;;1.80;;
26908;SDS011;14477;51.038;4.588;2023-03-13T09:09:22;7.00;;;1.80;;
26908;SDS011;14477;51.038;4.588;2023-03-13T09:11:48;4.00;;;1.70;;
26908;SDS011;14477;51.038;4.588;2023-03-13T09:14:13;5.38;;;1.90;;
26908;SDS011;14477;51.038;4.588;2023-03-13T09:16:39;3.90;;;1.70;;
26908;SDS011;14477;51.038;4.588;2023-03-13T09:19:05;3.67;;;1.77;;
26908;SDS011;14477;51.038;4.588;2023-03-13T09:21:32;3.17;;;1.70;;
26908;SDS011;14477;51.038;4.588;2023-03-13T09:23:59;3.95;;;2.00;;
26908;SDS011;14477;51.038;4.588;2023-03-13T09:26:25;3.85;;;1.70;;
26908;SDS011;14477;51.038;4.588;2023-03-13T09:28:52;3.83;;;1.58;;
26908;SDS011;14477;51.038;4.588;2023-03-13T09:31:23;4.17;;;1.83;;
26908;SDS011;14477;51.038;4.588;2023-03-13T09:33:50;3.10;;;1.70;;
26908;SDS011;14477;51.038;4.588;2023-03-13T09:36:17;5.55;;;2.22;;
26908;SDS011;14477;51.038;4.588;2023-03-13T09:38:43;6.25;;;2.40;;
26908;SDS011;14477;51.038;4.588;2023-03-13T09:46:17;2.97;;;1.60;;
26908;SDS011;14477;51.038;4.588;2023-03-13T09:48:47;3.05;;;1.80;;
26908;SDS011;14477;51.038;4.588;2023-03-13T09:51:18;3.47;;;1.43;;
26908;SDS011;14477;51.038;4.588;2023-03-13T09:54:02;2.72;;;1.70;;
26908;SDS011;14477;51.038;4.588;2023-03-13T09:56:43;3.17;;;1.55;;
26908;SDS011;14477;51.038;4.588;2023-03-13T09:59:24;2.88;;;1.40;;
26908;SDS011;14477;51.038;4.588;2023-03-13T10:01:55;2.65;;;1.30;;
26908;SDS011;14477;51.038;4.588;2023-03-13T10:04:29;2.57;;;1.30;;
26908;SDS011;14477;51.038;4.588;2023-03-13T10:07:02;3.88;;;1.60;;
26908;SDS011;14477;51.038;4.588;2023-03-13T10:09:32;3.47;;;1.40;;
26908;SDS011;14477;51.038;4.588;2023-03-13T10:14:30;3.78;;;1.52;;
26908;SDS011;14477;51.038;4.588;2023-03-13T10:19:57;4.25;;;1.70;;
26908;SDS011;14477;51.038;4.588;2023-03-13T10:22:30;2.70;;;1.50;;
26908;SDS011;14477;51.038;4.588;2023-03-13T10:28:09;2.75;;;1.40;;
26908;SDS011;14477;51.038;4.588;2023-03-13T10:30:46;2.57;;;1.40;;
26908;SDS011;14477;51.038;4.588;2023-03-13T10:33:25;3.78;;;1.40;;
26908;SDS011;14477;51.038;4.588;2023-03-13T10:36:03;3.25;;;1.50;;
26908;SDS011;14477;51.038;4.588;2023-03-13T10:38:47;3.95;;;1.58;;
26908;SDS011;14477;51.038;4.588;2023-03-13T10:43:52;2.27;;;1.27;;
26908;SDS011;14477;51.038;4.588;2023-03-13T10:46:23;2.83;;;1.50;;
26908;SDS011;14477;51.038;4.588;2023-03-13T10:48:54;2.63;;;1.45;;
26908;SDS011;14477;51.038;4.588;2023-03-13T10:51:21;1.88;;;1.40;;
26908;SDS011;14477;51.038;4.588;2023-03-13T10:53:49;2.25;;;1.48;;
26908;SDS011;14477;51.038;4.588;2023-03-13T10:56:30;1.77;;;1.37;;
26908;SDS011;14477;51.038;4.588;2023-03-13T10:58:55;2.95;;;1.10;;
26908;SDS011;14477;51.038;4.588;2023-03-13T11:03:57;1.40;;;1.17;;
26908;SDS011;14477;51.038;4.588;2023-03-13T11:06:30;2.72;;;1.30;;
26908;SDS011;14477;51.038;4.588;2023-03-13T11:08:58;2.27;;;1.40;;
26908;SDS011;14477;51.038;4.588;2023-03-13T11:11:48;3.00;;;1.38;;
26908;SDS011;14477;51.038;4.588;2023-03-13T11:14:19;3.42;;;1.60;;
26908;SDS011;14477;51.038;4.588;2023-03-13T11:19:26;2.42;;;1.40;;
26908;SDS011;14477;51.038;4.588;2023-03-13T11:35:21;2.97;;;1.10;;
26908;SDS011;14477;51.038;4.588;2023-03-13T11:38:11;2.67;;;1.40;;
26908;SDS011;14477;51.038;4.588;2023-03-13T11:46:06;2.25;;;1.00;;
26908;SDS011;14477;51.038;4.588;2023-03-13T11:55:17;4.33;;;1.20;;
26908;SDS011;14477;51.038;4.588;2023-03-13T12:00:43;2.88;;;1.20;;
26908;SDS011;14477;51.038;4.588;2023-03-13T12:09:13;2.67;;;1.20;;
26908;SDS011;14477;51.038;4.588;2023-03-13T12:11:55;2.50;;;1.00;;
26908;SDS011;14477;51.038;4.588;2023-03-13T12:22:41;2.10;;;1.10;;
26908;SDS011;14477;51.038;4.588;2023-03-13T12:25:23;1.85;;;1.00;;
26908;SDS011;14477;51.038;4.588;2023-03-13T12:27:54;1.77;;;1.02;;
26908;SDS011;14477;51.038;4.588;2023-03-13T12:30:36;2.55;;;1.10;;
26908;SDS011;14477;51.038;4.588;2023-03-13T12:36:39;2.03;;;1.00;;
26908;SDS011;14477;51.038;4.588;2023-03-13T12:38:53;2.28;;;1.05;;
26908;SDS011;14477;51.038;4.588;2023-03-13T12:41:30;2.92;;;0.90;;
26908;SDS011;14477;51.038;4.588;2023-03-13T12:44:06;1.08;;;0.90;;
26908;SDS011;14477;51.038;4.588;2023-03-13T13:00:20;1.92;;;0.98;;
26908;SDS011;14477;51.038;4.588;2023-03-13T13:14:15;1.48;;;0.90;;
26908;SDS011;14477;51.038;4.588;2023-03-13T13:16:55;1.30;;;0.80;;
26908;SDS011;14477;51.038;4.588;2023-03-13T13:27:54;2.03;;;1.08;;
26908;SDS011;14477;51.038;4.588;2023-03-13T13:35:39;1.52;;;0.85;;
26908;SDS011;14477;51.038;4.588;2023-03-13T13:41:00;1.30;;;0.80;;
26908;SDS011;14477;51.038;4.588;2023-03-13T13:43:33;2.47;;;1.13;;
26908;SDS011;14477;51.038;4.588;2023-03-13T13:46:26;2.20;;;0.98;;
26908;SDS011;14477;51.038;4.588;2023-03-13T13:51:39;2.45;;;1.00;;
26908;SDS011;14477;51.038;4.588;2023-03-13T14:00:20;1.50;;;0.82;;
26908;SDS011;14477;51.038;4.588;2023-03-13T14:02:54;1.52;;;0.80;;
26908;SDS011;14477;51.038;4.588;2023-03-13T14:05:24;2.33;;;1.00;;
26908;SDS011;14477;51.038;4.588;2023-03-13T14:12:59;1.52;;;0.80;;
26908;SDS011;14477;51.038;4.588;2023-03-13T14:15:27;1.95;;;0.98;;
26908;SDS011;14477;51.038;4.588;2023-03-13T14:18:10;3.33;;;1.00;;
26908;SDS011;14477;51.038;4.588;2023-03-13T14:21:05;1.53;;;0.80;;
26908;SDS011;14477;51.038;4.588;2023-03-13T14:23:44;2.33;;;1.10;;
26908;SDS011;14477;51.038;4.588;2023-03-13T14:26:23;2.65;;;0.77;;
26908;SDS011;14477;51.038;4.588;2023-03-13T14:28:51;4.22;;;0.93;;
26908;SDS011;14477;51.038;4.588;2023-03-13T14:31:20;2.42;;;1.10;;
26908;SDS011;14477;51.038;4.588;2023-03-13T14:33:52;3.10;;;0.93;;
26908;SDS011;14477;51.038;4.588;2023-03-13T14:36:17;1.98;;;1.10;;
26908;SDS011;14477;51.038;4.588;2023-03-13T14:38:54;2.20;;;1.10;;
26908;SDS011;14477;51.038;4.588;2023-03-13T14:41:31;2.28;;;0.90;;
26908;SDS011;14477;51.038;4.588;2023-03-13T14:44:05;4.33;;;1.00;;
26908;SDS011;14477;51.038;4.588;2023-03-13T14:46:39;3.53;;;1.00;;
26908;SDS011;14477;51.038;4.588;2023-03-13T14:49:19;2.53;;;0.90;;
26908;SDS011;14477;51.038;4.588;2023-03-13T14:51:55;2.90;;;1.00;;
26908;SDS011;14477;51.038;4.588;2023-03-13T14:54:31;2.47;;;1.10;;
26908;SDS011;14477;51.038;4.588;2023-03-13T14:59:31;2.20;;;0.95;;
26908;SDS011;14477;51.038;4.588;2023-03-13T15:02:39;3.05;;;0.90;;
26908;SDS011;14477;51.038;4.588;2023-03-13T15:04:52;3.78;;;1.33;;
26908;SDS011;14477;51.038;4.588;2023-03-13T15:07:26;2.47;;;1.00;;
26908;SDS011;14477;51.038;4.588;2023-03-13T15:10:01;3.28;;;0.90;;
26908;SDS011;14477;51.038;4.588;2023-03-13T15:12:42;5.35;;;1.15;;
26908;SDS011;14477;51.038;4.588;2023-03-13T15:15:09;4.18;;;1.10;;
26908;SDS011;14477;51.038;4.588;2023-03-13T15:17:35;3.97;;;1.13;;
26908;SDS011;14477;51.038;4.588;2023-03-13T15:20:02;3.20;;;1.10;;
26908;SDS011;14477;51.038;4.588;2023-03-13T15:22:32;4.57;;;1.30;;
26908;SDS011;14477;51.038;4.588;2023-03-13T15:25:01;3.70;;;1.40;;
26908;SDS011;14477;51.038;4.588;2023-03-13T15:27:27;2.58;;;1.10;;
26908;SDS011;14477;51.038;4.588;2023-03-13T15:29:54;3.03;;;1.20;;
26908;SDS011;14477;51.038;4.588;2023-03-13T15:32:33;2.70;;;0.90;;
26908;SDS011;14477;51.038;4.588;2023-03-13T15:35:01;2.58;;;1.10;;
26908;SDS011;14477;51.038;4.588;2023-03-13T15:37:52;3.10;;;1.10;;
26908;SDS011;14477;51.038;4.588;2023-03-13T15:40:18;3.35;;;1.13;;
26908;SDS011;14477;51.038;4.588;2023-03-13T15:42:44;3.17;;;1.00;;
26908;SDS011;14477;51.038;4.588;2023-03-13T15:45:10;3.73;;;1.10;;
26908;SDS011;14477;51.038;4.588;2023-03-13T15:47:36;2.25;;;1.08;;
26908;SDS011;14477;51.038;4.588;2023-03-13T15:50:02;3.07;;;1.23;;
26908;SDS011;14477;51.038;4.588;2023-03-13T15:52:28;3.88;;;1.30;;
26908;SDS011;14477;51.038;4.588;2023-03-13T15:54:54;3.45;;;1.00;;
26908;SDS011;14477;51.038;4.588;2023-03-13T15:57:21;2.58;;;1.00;;
26908;SDS011;14477;51.038;4.588;2023-03-13T15:59:50;4.10;;;1.60;;
26908;SDS011;14477;51.038;4.588;2023-03-13T16:02:18;3.20;;;1.20;;
26908;SDS011;14477;51.038;4.588;2023-03-13T16:04:46;3.72;;;1.10;;
26908;SDS011;14477;51.038;4.588;2023-03-13T16:07:13;5.20;;;1.40;;
26908;SDS011;14477;51.038;4.588;2023-03-13T16:09:41;2.50;;;1.10;;
26908;SDS011;14477;51.038;4.588;2023-03-13T16:12:08;3.85;;;1.50;;
26908;SDS011;14477;51.038;4.588;2023-03-13T16:14:35;3.43;;;1.30;;
26908;SDS011;14477;51.038;4.588;2023-03-13T16:17:02;4.25;;;1.30;;
26908;SDS011;14477;51.038;4.588;2023-03-13T16:19:34;2.88;;;1.15;;
26908;SDS011;14477;51.038;4.588;2023-03-13T16:22:00;2.90;;;1.30;;
26908;SDS011;14477;51.038;4.588;2023-03-13T16:24:25;5.60;;;1.40;;
26908;SDS011;14477;51.038;4.588;2023-03-13T16:26:52;3.90;;;1.20;;
26908;SDS011;14477;51.038;4.588;2023-03-13T16:29:18;3.95;;;1.55;;
26908;SDS011;14477;51.038;4.588;2023-03-13T16:31:44;3.03;;;1.17;;
26908;SDS011;14477;51.038;4.588;2023-03-13T16:34:09;3.97;;;1.10;;
26908;SDS011;14477;51.038;4.588;2023-03-13T16:36:35;4.63;;;1.60;;
26908;SDS011;14477;51.038;4.588;2023-03-13T16:39:03;3.55;;;1.45;;
26908;SDS011;14477;51.038;4.588;2023-03-13T16:41:34;2.55;;;1.23;;
26908;SDS011;14477;51.038;4.588;2023-03-13T16:44:00;3.73;;;1.37;;
26908;SDS011;14477;51.038;4.588;2023-03-13T16:46:36;2.42;;;1.23;;
26908;SDS011;14477;51.038;4.588;2023-03-13T16:49:04;5.35;;;1.30;;
26908;SDS011;14477;51.038;4.588;2023-03-13T16:51:30;3.50;;;1.25;;
26908;SDS011;14477;51.038;4.588;2023-03-13T16:53:57;4.47;;;1.40;;
26908;SDS011;14477;51.038;4.588;2023-03-13T16:59:11;4.82;;;1.40;;
26908;SDS011;14477;51.038;4.588;2023-03-13T17:01:42;3.97;;;1.23;;
26908;SDS011;14477;51.038;4.588;2023-03-13T17:04:08;3.35;;;1.20;;
26908;SDS011;14477;51.038;4.588;2023-03-13T17:06:35;4.10;;;1.30;;
26908;SDS011;14477;51.038;4.588;2023-03-13T17:09:03;4.10;;;1.23;;
26908;SDS011;14477;51.038;4.588;2023-03-13T17:11:37;4.30;;;1.30;;